الصفحة الرئيسية
METAR-TAF:

METAR-TAF

مطار :

كركان, إيران

دائرة عرض: 36-49N, خط طول: 054-28E, ارتفاع: 155 متر

مراقبة الطقس الحالي

تاريخ ووقت الإصدار 16 دقيقة قبل الساعة 13:00UTC
ريح 10 عقدة من الغرب/الجنوب الغربي
درجة الحرارة 30°درجة مئوية
الرطوبة 59%
ضغط 1010 hPa
الرؤية 10 كم أو أكثر
غيوم متفرقة على ارتفاع 3000 قدم
غيوم قليلة على ارتفاع 3500 قدم, مزنة ركامية.
ملبد بالغيوم على ارتفاع 10000 قدم

METAR: OING 141300Z 24010KT 9999 SCT030 FEW035CB OVC100 30/21 Q1010 TEMPO 30016KT 5000 TSRA

زمن: 17:46 (13:16 UTC)

توقعات

تاريخ ووقت الإصدار 2ساعات و 16 دقيقة قبل الساعة 11:00UTC
التوقعات صالحة من14 الساعة 12 UTC إلى 14 الساعة 21 UTC
ريح 8 عقدة من الغرب
الرؤية: 7000 متر
غيوم متفرقة على ارتفاع 3000 قدم
غيوم مفككة على ارتفاع 10000 قدم
مؤقت
من 14 الساعة 12 UTC إلى 14 الساعة 15 UTC
ريح 20 عقدة من الغرب
الرؤية: 5000 متر
غيوم متفرقة على ارتفاع 3000 قدم, مزنة ركامية.
غيوم مفككة على ارتفاع 3500 قدم
غيوم مفككة على ارتفاع 8000 قدم
عاصفة رعدية, مطر,

TAF: OING 141100Z 1412/1421 27008KT 7000 SCT030 BKN100 TEMPO 1412/1415 27020KT 5000 TSRA SCT030CB BKN035 BKN080

أرصاد الطقس والتوقعات من أكثر من 4000 مطار (تقارير الطقس للمطار METAR والتنبؤ بالطقس بالمطارTAF).

المحطات المتاحة هي النقط الصفراء والحمراء على الخريطة.

حرك المؤشر فوق النقطة لمعرفة اسم المحطة.

ثم انقر لمعرفة أرصاد وتوقعات الطقس.

لتغيير الخارطة: اضغط على الأزرار الخضراء مع رمز الصليب الأسود للتكبير. على الزر الأخضر مع شرطة للتصغير، أو على الأسهم الخضراء للخرائط المجاورة.


METAR-TAF: